createdAt,value
2022-12-31T00:09:13.975Z,13.1
2022-12-31T00:19:14.134Z,13.3
2022-12-31T00:29:14.905Z,13.3
2022-12-31T00:39:15.303Z,13.1
2022-12-31T00:49:15.907Z,12.9
2022-12-31T00:59:16.693Z,12.7
2022-12-31T01:09:17.190Z,12.5
2022-12-31T01:29:18.004Z,12.4
2022-12-31T01:39:18.332Z,12.5
2022-12-31T01:49:19.272Z,12.8
2022-12-31T01:59:20.182Z,12.9
2022-12-31T02:09:20.473Z,13
2022-12-31T02:19:20.887Z,13.1
2022-12-31T02:29:21.786Z,13.7
2022-12-31T02:39:22.149Z,14.2
2022-12-31T02:49:22.278Z,14.6
2022-12-31T02:59:22.425Z,14.6
2022-12-31T03:19:24.045Z,15
2022-12-31T03:29:24.213Z,14.7
2022-12-31T03:39:25.123Z,14.3
2022-12-31T03:49:25.899Z,14.4
2022-12-31T03:59:26.837Z,14.6
2022-12-31T04:09:27.585Z,15
2022-12-31T04:29:28.385Z,15.4
2022-12-31T04:39:28.852Z,15.4
2022-12-31T04:49:29.609Z,15.1
2022-12-31T04:59:29.832Z,15.3
2022-12-31T05:09:29.900Z,15.7
2022-12-31T05:19:30.273Z,15.8
2022-12-31T05:29:30.569Z,15.9
2022-12-31T05:39:31.493Z,16.1
2022-12-31T05:49:32.391Z,16.2
2022-12-31T05:59:33.157Z,16.3
2022-12-31T06:09:33.853Z,16.4
2022-12-31T06:19:34.608Z,16.4
2022-12-31T06:29:35.202Z,16.4
2022-12-31T06:39:36.022Z,16.4
2022-12-31T06:49:37.068Z,16.4
2022-12-31T06:59:37.542Z,16.4
2022-12-31T07:19:38.354Z,16.4
2022-12-31T07:29:39.382Z,16.5
2022-12-31T07:39:40.161Z,16.7
2022-12-31T07:49:41.065Z,16.5
2022-12-31T07:59:41.863Z,16.8
2022-12-31T08:09:41.953Z,16.8
2022-12-31T08:19:42.925Z,16.7
2022-12-31T08:29:43.857Z,16.9
2022-12-31T08:39:44.329Z,17
2022-12-31T08:49:44.738Z,17
2022-12-31T08:59:45.646Z,17.1
2022-12-31T09:09:46.413Z,17.1
2022-12-31T09:19:47.305Z,17.1
2022-12-31T09:29:48.307Z,17.1
2022-12-31T09:39:48.800Z,17.2
2022-12-31T09:49:49.854Z,17.2
2022-12-31T09:59:50.286Z,17.2
2022-12-31T10:09:50.779Z,17.1
2022-12-31T10:19:51.736Z,17.1
2022-12-31T10:29:52.045Z,17.2
2022-12-31T10:39:52.136Z,17.3
2022-12-31T10:49:53.189Z,17.4
2022-12-31T10:59:53.768Z,17.4
2022-12-31T11:09:54.829Z,17.5
2022-12-31T11:19:55.792Z,17.5
2022-12-31T11:29:56.557Z,17.6
2022-12-31T11:39:57.348Z,17.6
2022-12-31T11:49:57.855Z,17.4
2022-12-31T11:59:58.373Z,17.5
2022-12-31T12:09:58.773Z,17.4
2022-12-31T12:19:59.036Z,17.4
2022-12-31T12:29:59.450Z,17.3
2022-12-31T12:39:59.889Z,16.8
2022-12-31T12:50:00.859Z,16.3
2022-12-31T13:00:01.042Z,16.2
2022-12-31T13:10:01.591Z,16.2
2022-12-31T13:20:02.369Z,16.4
2022-12-31T13:30:03.288Z,16.6
2022-12-31T13:40:03.375Z,16.7
2022-12-31T13:50:04.860Z,16.7
2022-12-31T14:00:04.973Z,16.8
2022-12-31T14:10:05.378Z,16.8
2022-12-31T14:20:06.410Z,16.7
2022-12-31T14:22:44.692Z,16.7
2022-12-31T14:30:15.291Z,16.9
2022-12-31T14:40:16.189Z,16.7
2022-12-31T14:50:16.421Z,16.6
2022-12-31T15:00:16.997Z,16.5
2022-12-31T15:10:17.239Z,16.2
2022-12-31T15:20:17.968Z,16
2022-12-31T15:30:18.769Z,15.9
2022-12-31T15:50:20.184Z,16
2022-12-31T16:00:21.059Z,16.2
2022-12-31T16:10:21.914Z,16.3
2022-12-31T16:20:22.786Z,16.4
2022-12-31T16:40:24.652Z,16.4
2022-12-31T16:50:25.313Z,16.4
2022-12-31T17:00:26.276Z,16.3
2022-12-31T17:10:26.496Z,16.3
2022-12-31T17:20:26.974Z,16.3
2022-12-31T17:30:27.818Z,16.2
2022-12-31T17:40:50.230Z,16.1
2022-12-31T17:50:28.907Z,16.2
2022-12-31T18:00:29.755Z,16.2
2022-12-31T18:10:30.310Z,16.1
2022-12-31T18:20:30.895Z,16.1
2022-12-31T18:30:31.815Z,16.1
2022-12-31T18:40:32.388Z,16
2022-12-31T18:50:32.737Z,16
2022-12-31T19:00:33.118Z,16
2022-12-31T19:10:33.561Z,16.1
2022-12-31T19:20:33.840Z,16
2022-12-31T19:40:35.274Z,16.3
2022-12-31T19:50:35.556Z,16.3
2022-12-31T20:00:35.927Z,16.2
2022-12-31T20:10:36.288Z,16.2
2022-12-31T20:20:36.520Z,16.2
2022-12-31T20:30:37.253Z,16.3
2022-12-31T20:40:41.495Z,16.3
2022-12-31T20:50:38.294Z,16.4
2022-12-31T21:00:39.026Z,16.5
2022-12-31T21:10:39.738Z,16.5
2022-12-31T21:20:39.858Z,16.5
2022-12-31T21:30:40.217Z,16.7
2022-12-31T21:40:41.156Z,16.5
2022-12-31T21:50:41.818Z,16.6
2022-12-31T22:00:43.389Z,16.6
2022-12-31T22:10:50.421Z,16.6
2022-12-31T22:20:43.834Z,16.5
2022-12-31T22:30:44.113Z,16.6
2022-12-31T22:40:44.470Z,16.5
2022-12-31T22:50:45.455Z,16.8
2022-12-31T23:00:45.976Z,16.7
2022-12-31T23:10:46.465Z,16.8
2022-12-31T23:20:47.034Z,16.8
2022-12-31T23:30:47.771Z,16.8
2022-12-31T23:40:48.274Z,16.8
2022-12-31T23:50:52.909Z,17
